createdAt,value
2022-12-15T00:00:18.354Z,25.10
2022-12-15T00:03:03.755Z,26.37
2022-12-15T00:05:49.959Z,30.07
2022-12-15T00:08:36.363Z,30.67
2022-12-15T00:11:22.219Z,27.85
2022-12-15T00:14:07.678Z,28.10
2022-12-15T00:16:53.040Z,27.37
2022-12-15T00:19:38.522Z,27.83
2022-12-15T00:22:24.908Z,28.23
2022-12-15T00:27:55.306Z,27.08
2022-12-15T00:30:40.716Z,28.95
2022-12-15T00:33:30.405Z,25.83
2022-12-15T00:36:18.085Z,25.63
2022-12-15T00:38:45.802Z,26.52
2022-12-15T00:41:14.946Z,27.55
2022-12-15T00:43:41.681Z,26.55
2022-12-15T00:46:27.770Z,26.60
2022-12-15T00:48:54.765Z,27.98
2022-12-15T00:51:21.445Z,26.60
2022-12-15T00:54:06.725Z,30.23
2022-12-15T00:56:52.088Z,26.27
2022-12-15T00:59:37.611Z,22.52
2022-12-15T01:02:23.202Z,23.43
2022-12-15T01:05:08.570Z,23.42
2022-12-15T01:07:53.960Z,24.25
2022-12-15T01:10:39.632Z,23.25
2022-12-15T01:13:25.219Z,23.48
2022-12-15T01:16:10.845Z,25.27
2022-12-15T01:18:56.148Z,22.88
2022-12-15T01:21:24.889Z,23.02
2022-12-15T01:23:52.642Z,24.17
2022-12-15T01:26:19.649Z,25.27
2022-12-15T01:28:46.368Z,24.08
2022-12-15T01:31:13.299Z,25.20
2022-12-15T01:33:42.451Z,24.13
2022-12-15T01:36:10.153Z,23.58
2022-12-15T01:38:37.272Z,25.50
2022-12-15T01:41:07.904Z,25.02
2022-12-15T01:43:38.022Z,23.33
2022-12-15T01:46:11.683Z,25.25
2022-12-15T01:48:42.459Z,25.02
2022-12-15T01:51:30.374Z,24.45
2022-12-15T01:54:05.254Z,24.02
2022-12-15T01:56:38.003Z,25.60
2022-12-15T01:59:08.976Z,24.58
2022-12-15T02:01:35.960Z,23.88
2022-12-15T02:04:03.109Z,27.65
2022-12-15T02:06:30.384Z,26.10
2022-12-15T02:08:59.517Z,23.27
2022-12-15T02:11:50.071Z,23.65
2022-12-15T02:14:28.211Z,23.20
2022-12-15T02:17:10.159Z,24.08
2022-12-15T02:19:55.401Z,25.00
2022-12-15T02:22:57.295Z,24.10
2022-12-15T02:25:32.913Z,22.92
2022-12-15T02:28:15.038Z,23.63
2022-12-15T02:31:07.252Z,23.30
2022-12-15T02:33:39.008Z,23.05
2022-12-15T02:36:27.409Z,23.70
2022-12-15T02:38:54.140Z,23.38
2022-12-15T02:41:38.633Z,21.52
2022-12-15T02:44:15.134Z,24.20
2022-12-15T02:46:53.403Z,21.95
2022-12-15T02:49:57.462Z,22.02
2022-12-15T02:52:56.925Z,21.73
2022-12-15T02:55:55.647Z,21.73
2022-12-15T02:58:37.378Z,22.02
2022-12-15T03:01:23.785Z,22.02
2022-12-15T03:03:51.907Z,22.73
2022-12-15T03:06:19.724Z,23.00
2022-12-15T03:08:46.391Z,22.15
2022-12-15T03:11:13.109Z,23.33
2022-12-15T03:13:39.802Z,24.63
2022-12-15T03:16:06.776Z,23.20
2022-12-15T03:18:34.146Z,22.35
2022-12-15T03:21:00.983Z,23.52
2022-12-15T03:23:27.929Z,23.67
2022-12-15T03:25:55.732Z,21.25
2022-12-15T03:28:22.899Z,24.08
2022-12-15T03:30:50.419Z,22.55
2022-12-15T03:33:17.571Z,22.58
2022-12-15T03:35:44.416Z,23.38
2022-12-15T03:38:11.177Z,23.58
2022-12-15T03:40:37.830Z,22.50
2022-12-15T03:43:04.536Z,22.75
2022-12-15T03:45:31.323Z,22.80
2022-12-15T03:47:58.166Z,21.45
2022-12-15T03:50:27.335Z,23.45
2022-12-15T03:53:00.111Z,23.80
2022-12-15T03:55:28.925Z,21.77
2022-12-15T03:57:56.071Z,21.88
2022-12-15T04:00:24.605Z,22.75
2022-12-15T04:02:51.902Z,23.65
2022-12-15T04:05:22.931Z,23.63
2022-12-15T04:07:49.583Z,21.17
2022-12-15T04:10:16.314Z,21.65
2022-12-15T04:12:43.152Z,21.15
2022-12-15T04:15:11.455Z,22.27
2022-12-15T04:17:38.507Z,22.95
2022-12-15T04:20:09.876Z,23.98
2022-12-15T04:22:41.734Z,22.85
2022-12-15T04:25:35.090Z,20.95
2022-12-15T04:28:20.506Z,23.15
2022-12-15T04:31:40.731Z,22.88
2022-12-15T04:34:31.285Z,22.77
2022-12-15T04:37:16.736Z,22.88
2022-12-15T04:40:06.112Z,23.50
2022-12-15T04:42:53.510Z,22.55
2022-12-15T04:45:42.554Z,22.42
2022-12-15T04:48:28.581Z,21.83
2022-12-15T04:51:13.987Z,22.65
2022-12-15T04:54:01.034Z,22.35
2022-12-15T04:56:46.446Z,24.80
2022-12-15T04:59:35.389Z,22.02
2022-12-15T05:02:20.878Z,23.67
2022-12-15T05:05:06.014Z,23.40
2022-12-15T05:07:51.440Z,23.63
2022-12-15T05:10:36.904Z,24.03
2022-12-15T05:13:23.666Z,24.50
2022-12-15T05:16:09.380Z,22.85
2022-12-15T05:18:54.570Z,23.40
2022-12-15T05:21:39.972Z,23.02
2022-12-15T05:24:25.345Z,22.50
2022-12-15T05:27:10.806Z,23.92
2022-12-15T05:29:56.327Z,22.73
2022-12-15T05:32:23.709Z,24.20
2022-12-15T05:34:50.390Z,23.65
2022-12-15T05:37:17.059Z,24.40
2022-12-15T05:39:43.861Z,24.70
2022-12-15T05:42:10.589Z,25.58
2022-12-15T05:44:37.307Z,24.85
2022-12-15T05:47:04.835Z,27.95
2022-12-15T05:49:32.102Z,25.88
2022-12-15T05:51:58.820Z,27.63
2022-12-15T05:54:25.566Z,28.02
2022-12-15T05:56:52.252Z,27.00
2022-12-15T05:59:19.358Z,26.48
2022-12-15T06:01:46.439Z,25.98
2022-12-15T06:04:13.606Z,29.75
2022-12-15T06:06:41.208Z,27.08
2022-12-15T06:09:08.847Z,27.17
2022-12-15T06:11:35.541Z,26.15
2022-12-15T06:14:02.401Z,26.15
2022-12-15T06:16:29.517Z,25.75
2022-12-15T06:18:59.145Z,24.15
2022-12-15T06:21:32.744Z,23.77
2022-12-15T06:24:00.614Z,22.65
2022-12-15T06:26:31.342Z,26.08
2022-12-15T06:28:59.704Z,26.58
2022-12-15T06:31:26.715Z,26.63
2022-12-15T06:34:00.926Z,27.83
2022-12-15T06:36:28.635Z,29.45
2022-12-15T06:38:59.476Z,29.90
2022-12-15T06:41:26.586Z,28.27
2022-12-15T06:43:57.929Z,29.17
2022-12-15T06:46:26.368Z,28.95
2022-12-15T06:48:53.596Z,29.13
2022-12-15T06:51:20.435Z,29.55
2022-12-15T06:53:53.671Z,27.83
2022-12-15T06:56:35.936Z,29.83
2022-12-15T06:59:04.719Z,27.30
2022-12-15T07:01:32.310Z,28.80
2022-12-15T07:04:04.670Z,28.98
2022-12-15T07:06:38.585Z,29.13
2022-12-15T07:09:08.190Z,28.23
2022-12-15T07:11:35.241Z,28.30
2022-12-15T07:14:02.153Z,29.65
2022-12-15T07:16:28.979Z,26.83
2022-12-15T07:18:55.716Z,29.10
2022-12-15T07:21:22.451Z,28.48
2022-12-15T07:23:57.567Z,30.35
2022-12-15T07:26:25.584Z,30.67
2022-12-15T07:28:53.790Z,29.55
2022-12-15T07:31:21.851Z,29.08
2022-12-15T07:33:48.924Z,29.73
2022-12-15T07:36:16.127Z,30.85
2022-12-15T07:38:45.355Z,31.85
2022-12-15T07:41:16.912Z,31.35
2022-12-15T07:43:45.383Z,44.85
2022-12-15T07:46:12.196Z,35.35
2022-12-15T07:48:38.938Z,32.97
2022-12-15T07:51:12.440Z,31.50
2022-12-15T07:53:44.264Z,32.20
2022-12-15T07:56:11.066Z,30.35
2022-12-15T07:58:38.440Z,32.42
2022-12-15T08:01:07.738Z,31.08
2022-12-15T08:03:35.811Z,30.85
2022-12-15T08:06:06.823Z,29.50
2022-12-15T08:08:35.874Z,30.00
2022-12-15T08:11:07.014Z,30.77
2022-12-15T08:16:25.058Z,55.80
2022-12-15T08:18:51.905Z,37.08
2022-12-15T08:21:18.899Z,31.63
2022-12-15T08:23:45.775Z,33.30
2022-12-15T08:26:15.037Z,31.52
2022-12-15T08:28:42.784Z,31.10
2022-12-15T08:31:12.451Z,29.27
2022-12-15T08:33:39.769Z,30.92
2022-12-15T08:36:09.689Z,31.80
2022-12-15T08:38:41.219Z,32.53
2022-12-15T08:41:23.070Z,34.22
2022-12-15T08:43:50.680Z,39.85
2022-12-15T08:46:19.714Z,39.13
2022-12-15T08:48:47.101Z,34.80
2022-12-15T08:51:14.247Z,44.45
2022-12-15T08:53:40.981Z,37.25
2022-12-15T08:56:17.835Z,35.75
2022-12-15T08:58:48.919Z,32.17
2022-12-15T09:01:23.618Z,33.30
2022-12-15T09:03:52.184Z,33.67
2022-12-15T09:06:23.032Z,33.78
2022-12-15T09:08:50.443Z,32.58
2022-12-15T09:11:17.839Z,30.63
2022-12-15T09:13:44.643Z,33.63
2022-12-15T09:16:16.765Z,31.30
2022-12-15T09:18:45.970Z,34.45
2022-12-15T09:21:13.691Z,32.97
2022-12-15T09:23:40.680Z,31.60
2022-12-15T09:26:10.988Z,32.30
2022-12-15T09:28:38.456Z,31.85
2022-12-15T09:31:11.227Z,32.08
2022-12-15T09:33:39.447Z,36.95
2022-12-15T09:36:07.762Z,32.58
2022-12-15T09:38:35.173Z,35.83
2022-12-15T09:41:13.794Z,33.97
2022-12-15T09:43:56.521Z,34.65
2022-12-15T09:46:49.811Z,32.92
2022-12-15T09:49:19.978Z,33.55
2022-12-15T09:51:56.019Z,33.25
2022-12-15T09:54:26.729Z,34.05
2022-12-15T09:56:56.667Z,34.00
2022-12-15T09:59:44.887Z,35.50
2022-12-15T10:02:12.468Z,31.45
2022-12-15T10:05:02.913Z,33.60
2022-12-15T10:07:39.583Z,34.20
2022-12-15T10:10:33.449Z,34.45
2022-12-15T10:13:08.989Z,34.50
2022-12-15T10:15:50.160Z,32.33
2022-12-15T10:18:20.058Z,40.70
2022-12-15T10:20:46.900Z,34.38
2022-12-15T10:23:17.634Z,37.67
2022-12-15T10:26:09.256Z,33.65
2022-12-15T10:28:55.667Z,32.45
2022-12-15T10:34:10.742Z,33.70
2022-12-15T10:36:37.910Z,34.30
2022-12-15T10:39:04.650Z,34.05
2022-12-15T10:41:32.949Z,33.10
2022-12-15T10:43:59.744Z,33.40
2022-12-15T10:46:29.027Z,34.97
2022-12-15T10:49:07.917Z,35.65
2022-12-15T10:51:47.245Z,39.35
2022-12-15T10:54:15.811Z,38.00
2022-12-15T10:56:54.929Z,35.53
2022-12-15T10:59:38.637Z,37.70
2022-12-15T11:02:23.835Z,37.17
2022-12-15T11:05:15.607Z,34.72
2022-12-15T11:07:42.387Z,34.88
2022-12-15T11:10:25.240Z,35.17
2022-12-15T11:13:16.262Z,34.60
2022-12-15T11:15:51.722Z,36.42
2022-12-15T11:18:21.406Z,33.17
2022-12-15T11:21:02.927Z,34.88
2022-12-15T11:23:46.682Z,36.05
2022-12-15T11:26:36.496Z,35.83
2022-12-15T11:29:16.621Z,37.67
2022-12-15T11:31:45.358Z,35.13
2022-12-15T11:34:18.703Z,36.58
2022-12-15T11:36:48.445Z,34.38
2022-12-15T11:39:36.026Z,37.72
2022-12-15T11:42:23.492Z,33.20
2022-12-15T11:45:17.177Z,37.05
2022-12-15T11:48:07.571Z,32.03
2022-12-15T11:51:12.037Z,35.92
2022-12-15T11:53:56.094Z,38.17
2022-12-15T11:56:33.729Z,36.65
2022-12-15T11:59:40.258Z,32.88
2022-12-15T12:02:28.298Z,37.17
2022-12-15T12:05:14.208Z,36.70
2022-12-15T12:07:54.711Z,38.95
2022-12-15T12:10:44.033Z,33.85
2022-12-15T12:13:30.649Z,35.45
2022-12-15T12:16:11.852Z,35.00
2022-12-15T12:21:51.328Z,34.90
2022-12-15T12:24:31.362Z,34.78
2022-12-15T12:27:16.750Z,35.70
2022-12-15T12:29:52.382Z,36.25
2022-12-15T12:32:44.352Z,33.22
2022-12-15T12:35:35.746Z,35.67
2022-12-15T12:38:05.047Z,34.55
2022-12-15T12:40:41.157Z,35.33
2022-12-15T12:45:57.201Z,31.15
2022-12-15T12:48:29.529Z,36.17
2022-12-15T12:51:21.369Z,33.80
2022-12-15T12:53:48.712Z,34.72
2022-12-15T12:56:36.108Z,33.58
2022-12-15T12:59:08.859Z,34.58
2022-12-15T13:01:38.305Z,33.78
2022-12-15T13:04:14.078Z,35.72
2022-12-15T13:06:40.780Z,34.75
2022-12-15T13:09:19.446Z,34.78
2022-12-15T13:11:49.350Z,33.15
2022-12-15T13:14:26.507Z,33.17
2022-12-15T13:20:01.476Z,41.88
2022-12-15T13:22:37.018Z,37.13
2022-12-15T13:25:38.342Z,35.15
2022-12-15T13:28:29.961Z,33.22
2022-12-15T13:31:21.118Z,32.70
2022-12-15T13:33:51.041Z,34.55
2022-12-15T13:36:36.695Z,32.30
2022-12-15T13:39:25.368Z,34.45
2022-12-15T13:42:31.624Z,31.38
2022-12-15T13:44:46.758Z,35.08
2022-12-15T13:47:22.031Z,29.45
2022-12-15T13:50:13.123Z,31.42
2022-12-15T13:55:39.960Z,30.63
2022-12-15T13:58:09.618Z,30.92
2022-12-15T14:00:38.892Z,33.65
2022-12-15T14:03:07.557Z,31.58
2022-12-15T14:05:34.463Z,32.40
2022-12-15T14:08:03.495Z,31.48
2022-12-15T14:10:33.183Z,31.90
2022-12-15T14:13:15.534Z,35.05
2022-12-15T14:16:05.185Z,33.78
2022-12-15T14:18:37.396Z,29.98
2022-12-15T14:21:21.990Z,36.30
2022-12-15T14:24:19.698Z,34.53
2022-12-15T14:26:36.302Z,32.90
2022-12-15T14:29:05.621Z,33.85
2022-12-15T14:31:32.950Z,32.75
2022-12-15T14:34:07.921Z,32.03
2022-12-15T14:36:35.739Z,33.38
2022-12-15T14:39:07.046Z,33.40
2022-12-15T14:41:37.306Z,33.95
2022-12-15T14:44:37.152Z,34.78
2022-12-15T14:47:15.833Z,32.38
2022-12-15T14:49:45.348Z,32.03
2022-12-15T14:52:39.733Z,33.63
2022-12-15T14:55:35.465Z,33.20
2022-12-15T14:58:02.940Z,36.25
2022-12-15T15:00:35.920Z,36.38
2022-12-15T15:03:04.870Z,37.33
2022-12-15T15:03:20.036Z,33.55
2022-12-15T15:05:51.610Z,38.55
2022-12-15T15:08:36.428Z,36.58
2022-12-15T15:11:31.203Z,33.42
2022-12-15T15:14:17.258Z,35.65
2022-12-15T15:16:44.467Z,34.95
2022-12-15T15:19:21.288Z,32.30
2022-12-15T15:21:48.343Z,37.72
2022-12-15T15:24:15.331Z,32.25
2022-12-15T15:26:43.105Z,34.10
2022-12-15T15:29:31.745Z,33.55
2022-12-15T15:32:27.947Z,33.10
2022-12-15T15:34:54.658Z,32.67
2022-12-15T15:37:24.115Z,31.85
2022-12-15T15:39:52.894Z,35.08
2022-12-15T15:42:19.763Z,32.05
2022-12-15T15:44:46.557Z,32.80
2022-12-15T15:47:25.243Z,31.13
2022-12-15T15:49:54.708Z,33.03
2022-12-15T15:52:22.310Z,31.50
2022-12-15T15:54:49.354Z,31.20
2022-12-15T15:57:17.918Z,31.20
2022-12-15T15:59:46.586Z,30.85
2022-12-15T16:02:14.420Z,32.08
2022-12-15T16:04:42.439Z,33.88
2022-12-15T16:07:29.069Z,33.42
2022-12-15T16:09:56.605Z,30.05
2022-12-15T16:12:29.624Z,31.33
2022-12-15T16:14:56.630Z,40.80
2022-12-15T16:17:23.656Z,34.83
2022-12-15T16:19:50.377Z,41.95
2022-12-15T16:22:22.220Z,33.90
2022-12-15T16:24:49.127Z,33.80
2022-12-15T16:27:16.382Z,32.80
2022-12-15T16:29:43.300Z,32.38
2022-12-15T16:32:12.461Z,31.70
2022-12-15T16:34:39.228Z,37.65
2022-12-15T16:37:06.555Z,32.28
2022-12-15T16:39:35.049Z,34.13
2022-12-15T16:42:02.148Z,33.00
2022-12-15T16:44:29.743Z,34.35
2022-12-15T16:46:57.673Z,33.03
2022-12-15T16:49:25.079Z,40.58
2022-12-15T16:51:53.622Z,37.95
2022-12-15T16:54:26.115Z,33.45
2022-12-15T16:56:57.082Z,30.58
2022-12-15T16:59:33.402Z,31.92
2022-12-15T17:02:01.366Z,32.72
2022-12-15T17:04:28.203Z,30.77
2022-12-15T17:06:54.971Z,28.50
2022-12-15T17:09:24.123Z,30.10
2022-12-15T17:11:51.889Z,30.70
2022-12-15T17:14:18.604Z,28.23
2022-12-15T17:16:45.396Z,28.10
2022-12-15T17:19:14.987Z,28.77
2022-12-15T17:21:48.928Z,29.00
2022-12-15T17:24:19.938Z,27.67
2022-12-15T17:26:47.030Z,29.63
2022-12-15T17:29:22.857Z,28.33
2022-12-15T17:31:49.961Z,28.05
2022-12-15T17:34:30.529Z,28.77
2022-12-15T17:36:59.472Z,28.10
2022-12-15T17:39:27.359Z,28.40
2022-12-15T17:42:02.533Z,28.85
2022-12-15T17:44:36.107Z,28.70
2022-12-15T17:47:06.183Z,28.75
2022-12-15T17:49:36.566Z,29.33
2022-12-15T17:52:12.511Z,28.25
2022-12-15T17:54:39.270Z,30.00
2022-12-15T17:57:07.632Z,27.83
2022-12-15T17:59:34.278Z,27.88
2022-12-15T18:02:01.120Z,27.83
2022-12-15T18:04:27.983Z,29.58
2022-12-15T18:07:01.280Z,29.33
2022-12-15T18:09:29.268Z,31.80
2022-12-15T18:11:56.226Z,28.95
2022-12-15T18:14:23.021Z,33.38
2022-12-15T18:16:50.002Z,30.73
2022-12-15T18:19:16.765Z,31.73
2022-12-15T18:21:43.568Z,30.95
2022-12-15T18:24:19.195Z,30.17
2022-12-15T18:26:45.920Z,34.03
2022-12-15T18:29:14.283Z,30.30
2022-12-15T18:31:42.070Z,30.40
2022-12-15T18:34:18.140Z,29.23
2022-12-15T18:36:45.351Z,29.38
2022-12-15T18:39:21.084Z,29.23
2022-12-15T18:41:48.773Z,30.45
2022-12-15T18:44:26.303Z,29.23
2022-12-15T18:46:55.124Z,29.73
2022-12-15T18:49:22.735Z,29.00
2022-12-15T18:51:49.639Z,29.80
2022-12-15T18:54:24.155Z,29.35
2022-12-15T18:56:51.639Z,27.30
2022-12-15T18:59:18.846Z,29.15
2022-12-15T19:01:47.386Z,26.60
2022-12-15T19:04:15.000Z,28.10
2022-12-15T19:06:41.698Z,27.67
2022-12-15T19:09:18.153Z,29.13
2022-12-15T19:12:05.976Z,29.75
2022-12-15T19:14:42.629Z,30.98
2022-12-15T19:17:37.046Z,33.55
2022-12-15T19:20:25.715Z,29.50
2022-12-15T19:22:52.731Z,27.40
2022-12-15T19:25:27.048Z,27.45
2022-12-15T19:28:04.181Z,27.83
2022-12-15T19:30:37.034Z,26.23
2022-12-15T19:33:08.306Z,28.65
2022-12-15T19:35:36.694Z,25.85
2022-12-15T19:38:04.182Z,25.67
2022-12-15T19:40:33.519Z,25.55
2022-12-15T19:43:01.006Z,24.02
2022-12-15T19:45:30.445Z,27.25
2022-12-15T19:47:58.029Z,25.15
2022-12-15T19:50:28.359Z,23.98
2022-12-15T19:53:12.157Z,23.88
2022-12-15T19:55:39.182Z,24.83
2022-12-15T19:58:28.065Z,23.88
2022-12-15T20:00:57.863Z,26.10
2022-12-15T20:03:25.728Z,24.33
2022-12-15T20:05:54.451Z,24.25
2022-12-15T20:08:27.286Z,23.73
2022-12-15T20:10:55.432Z,22.88
2022-12-15T20:13:22.822Z,22.27
2022-12-15T20:15:49.597Z,22.42
2022-12-15T20:18:16.397Z,21.38
2022-12-15T20:20:46.253Z,22.60
2022-12-15T20:23:20.685Z,21.42
2022-12-15T20:25:47.570Z,22.30
2022-12-15T20:28:27.405Z,22.42
2022-12-15T20:30:55.939Z,19.70
2022-12-15T20:33:22.806Z,21.48
2022-12-15T20:35:50.250Z,22.08
2022-12-15T20:38:33.925Z,21.02
2022-12-15T20:41:01.988Z,19.67
2022-12-15T20:43:31.669Z,20.02
2022-12-15T20:46:15.473Z,18.67
2022-12-15T20:48:42.848Z,18.55
2022-12-15T20:51:15.702Z,18.83
2022-12-15T20:53:43.729Z,19.30
2022-12-15T20:56:10.522Z,16.17
2022-12-15T20:58:40.428Z,17.15
2022-12-15T21:01:18.581Z,17.52
2022-12-15T21:03:45.972Z,17.20
2022-12-15T21:06:12.789Z,19.13
2022-12-15T21:08:39.502Z,19.25
2022-12-15T21:11:19.955Z,18.00
2022-12-15T21:13:49.028Z,16.73
2022-12-15T21:16:19.727Z,16.17
2022-12-15T21:21:39.743Z,16.05
2022-12-15T21:24:22.736Z,16.65
2022-12-15T21:26:50.569Z,16.67
2022-12-15T21:29:26.308Z,15.90
2022-12-15T21:31:53.102Z,16.38
2022-12-15T21:34:19.798Z,15.63
2022-12-15T21:36:50.039Z,16.45
2022-12-15T21:39:29.391Z,17.50
2022-12-15T21:41:58.895Z,15.90
2022-12-15T21:44:25.588Z,14.98
2022-12-15T21:46:52.366Z,15.27
2022-12-15T21:49:21.394Z,13.80
2022-12-15T21:51:57.319Z,15.32
2022-12-15T21:57:02.662Z,14.77
2022-12-15T21:59:31.520Z,14.00
2022-12-15T22:02:00.588Z,13.68
2022-12-15T22:04:33.956Z,14.65
2022-12-15T22:07:01.154Z,14.07
2022-12-15T22:09:28.639Z,13.90
2022-12-15T22:11:56.491Z,15.10
2022-12-15T22:14:29.629Z,13.57
2022-12-15T22:16:57.241Z,13.98
2022-12-15T22:19:24.122Z,13.60
2022-12-15T22:21:51.299Z,15.00
2022-12-15T22:24:19.050Z,14.32
2022-12-15T22:26:47.391Z,14.05
2022-12-15T22:29:21.223Z,13.60
2022-12-15T22:31:50.127Z,13.95
2022-12-15T22:34:23.027Z,13.93
2022-12-15T22:36:53.063Z,14.15
2022-12-15T22:39:21.851Z,13.68
2022-12-15T22:41:50.668Z,14.30
2022-12-15T22:44:33.201Z,13.02
2022-12-15T22:47:01.599Z,12.38
2022-12-15T22:49:36.230Z,12.88
2022-12-15T22:52:03.708Z,12.15
2022-12-15T22:54:32.146Z,11.88
2022-12-15T22:57:05.348Z,12.32
2022-12-15T22:59:43.717Z,11.95
2022-12-15T23:02:11.345Z,13.52
2022-12-15T23:04:38.319Z,11.82
2022-12-15T23:07:10.053Z,11.88
2022-12-15T23:09:37.025Z,12.77
2022-12-15T23:12:03.947Z,12.73
2022-12-15T23:14:49.115Z,12.30
2022-12-15T23:17:15.897Z,11.90
2022-12-15T23:19:46.495Z,11.30
2022-12-15T23:22:13.537Z,11.32
2022-12-15T23:24:40.234Z,10.70
2022-12-15T23:27:11.654Z,10.93
2022-12-15T23:29:38.472Z,10.80
2022-12-15T23:32:06.020Z,11.23
2022-12-15T23:34:32.701Z,10.60
2022-12-15T23:36:59.538Z,11.02
2022-12-15T23:39:26.230Z,10.88
2022-12-15T23:41:52.900Z,11.27
2022-12-15T23:44:20.168Z,12.38
2022-12-15T23:46:46.990Z,11.30
2022-12-15T23:49:13.822Z,11.75
2022-12-15T23:51:40.523Z,10.48
2022-12-15T23:54:07.262Z,11.13
2022-12-15T23:56:33.980Z,11.18
2022-12-15T23:59:00.646Z,10.02
